Time;durP1;ratioP1;P1;durP2;ratioP2;P2;SDS_P1;SDS_P2;PMS_P1;PMS_P2;Temp;Humidity;BMP_temperature;BMP_pressure;BME280_temperature;BME280_humidity;BME280_pressure;Samples;Min_cycle;Max_cycle;Signal;HPM_P1;HPM_P2
2023/09/03 00:02:13;;;;;;;17.42;14.35;;;;;;;;;;5021109;28;25074;-76
2023/09/03 00:04:39;;;;;;;19.20;15.70;;;;;;;;;;5008436;28;25078;-80
2023/09/03 00:07:05;;;;;;;18.75;15.13;;;;;;;;;;5004848;28;25041;-81
2023/09/03 00:09:33;;;;;;;20.25;15.63;;;;;;;;;;5007911;28;25106;-75
2023/09/03 00:11:59;;;;;;;20.63;14.60;;;;;;;;;;5020455;28;25055;-76
2023/09/03 00:14:25;;;;;;;18.65;15.10;;;;;;;;;;5025693;28;25073;-75
2023/09/03 00:16:51;;;;;;;18.10;14.90;;;;;;;;;;5010363;28;25049;-77
2023/09/03 00:19:17;;;;;;;21.42;15.73;;;;;;;;;;5013400;28;25089;-78
2023/09/03 00:21:43;;;;;;;17.95;15.13;;;;;;;;;;5008271;28;25047;-77
2023/09/03 00:24:09;;;;;;;18.38;14.70;;;;;;;;;;5014749;28;25074;-75
2023/09/03 00:26:35;;;;;;;17.58;14.20;;;;;;;;;;5018140;28;25086;-77
2023/09/03 00:29:01;;;;;;;19.23;15.57;;;;;;;;;;5003604;28;25111;-76
2023/09/03 00:31:27;;;;;;;17.85;15.30;;;;;;;;;;5002068;28;25149;-74
2023/09/03 00:33:53;;;;;;;20.40;15.48;;;;;;;;;;5011678;28;25093;-76
2023/09/03 00:36:20;;;;;;;18.52;14.77;;;;;;;;;;5000253;28;25067;-75
2023/09/03 00:38:49;;;;;;;19.90;16.05;;;;;;;;;;5013861;28;25056;-77
2023/09/03 00:41:16;;;;;;;20.33;15.10;;;;;;;;;;5011455;28;25045;-75
2023/09/03 00:43:41;;;;;;;17.38;15.50;;;;;;;;;;5007078;28;25073;-76
2023/09/03 00:46:08;;;;;;;19.42;15.18;;;;;;;;;;5006727;28;25158;-76
2023/09/03 00:48:36;;;;;;;18.42;15.55;;;;;;;;;;5016363;28;25061;-77
2023/09/03 00:51:05;;;;;;;19.23;14.57;;;;;;;;;;5012028;28;25076;-75
2023/09/03 00:53:33;;;;;;;22.77;15.52;;;;;;;;;;5014983;28;25095;-75
2023/09/03 00:56:00;;;;;;;21.42;14.80;;;;;;;;;;5012052;28;25044;-76
2023/09/03 00:58:26;;;;;;;16.13;14.20;;;;;;;;;;5014026;28;25065;-76
2023/09/03 01:00:52;;;;;;;19.80;14.68;;;;;;;;;;5023829;28;25058;-76
2023/09/03 01:03:19;;;;;;;19.45;14.13;;;;;;;;;;5020240;28;25064;-81
2023/09/03 01:05:45;;;;;;;16.63;13.80;;;;;;;;;;5013829;28;25055;-78
2023/09/03 01:08:12;;;;;;;17.17;13.57;;;;;;;;;;5018746;28;25066;-77
2023/09/03 01:10:59;;;;;;;14.25;12.75;;;;;;;;;;5007045;28;25318;-79
2023/09/03 01:13:26;;;;;;;14.10;12.38;;;;;;;;;;5002115;28;25080;-75
2023/09/03 01:15:53;;;;;;;17.40;12.15;;;;;;;;;;5006268;28;25124;-77
2023/09/03 01:18:24;;;;;;;14.35;12.18;;;;;;;;;;5000216;28;25063;-76
2023/09/03 01:20:58;;;;;;;17.10;13.25;;;;;;;;;;5004699;28;25086;-76
2023/09/03 01:23:30;;;;;;;14.60;12.30;;;;;;;;;;5008926;28;25149;-74
2023/09/03 01:25:56;;;;;;;;;;;;;;;;;;5010901;28;25062;-75
2023/09/03 01:28:26;;;;;;;15.07;11.95;;;;;;;;;;5000604;28;25080;-75
2023/09/03 01:30:55;;;;;;;14.40;11.43;;;;;;;;;;5011201;28;25073;-76
2023/09/03 01:33:22;;;;;;;15.85;12.23;;;;;;;;;;5005241;28;25152;-76
2023/09/03 01:35:49;;;;;;;13.48;12.07;;;;;;;;;;5024086;28;25070;-76
2023/09/03 01:38:15;;;;;;;17.88;13.40;;;;;;;;;;5010696;28;25053;-75
2023/09/03 01:40:41;;;;;;;14.05;12.05;;;;;;;;;;5010680;28;25055;-77
2023/09/03 01:43:07;;;;;;;15.32;12.07;;;;;;;;;;5013841;28;25061;-76
2023/09/03 01:45:41;;;;;;;17.92;13.32;;;;;;;;;;5007902;28;25068;-76
2023/09/03 01:48:13;;;;;;;15.43;11.85;;;;;;;;;;5006134;28;25131;-76
2023/09/03 01:50:43;;;;;;;16.00;11.52;;;;;;;;;;5010092;28;25068;-75
2023/09/03 01:53:09;;;;;;;12.43;10.38;;;;;;;;;;5027717;28;25064;-75
2023/09/03 01:55:38;;;;;;;14.15;11.10;;;;;;;;;;5006546;28;25073;-76
2023/09/03 01:58:07;;;;;;;14.18;10.50;;;;;;;;;;5008828;28;25142;-79
2023/09/03 02:00:33;;;;;;;13.52;10.00;;;;;;;;;;5006817;28;25063;-75
2023/09/03 02:03:01;;;;;;;15.80;10.63;;;;;;;;;;5007766;28;25067;-79
2023/09/03 02:05:27;;;;;;;12.55;11.18;;;;;;;;;;5007443;28;25129;-75
2023/09/03 02:07:53;;;;;;;14.25;11.10;;;;;;;;;;5007610;28;25106;-77
2023/09/03 02:10:19;;;;;;;12.23;10.90;;;;;;;;;;5006243;28;25111;-77
2023/09/03 02:12:45;;;;;;;13.45;10.55;;;;;;;;;;5011110;28;25073;-79
2023/09/03 02:15:11;;;;;;;15.90;11.65;;;;;;;;;;5006627;28;25082;-75
2023/09/03 02:17:37;;;;;;;17.83;12.00;;;;;;;;;;5011031;28;25160;-75
2023/09/03 02:20:03;;;;;;;15.60;11.82;;;;;;;;;;5012301;28;25106;-77
2023/09/03 02:22:29;;;;;;;18.35;13.10;;;;;;;;;;5020813;28;25147;-76
2023/09/03 02:24:55;;;;;;;18.05;12.20;;;;;;;;;;5011339;28;25108;-75
2023/09/03 02:27:21;;;;;;;15.43;11.73;;;;;;;;;;5007664;28;25104;-75
2023/09/03 02:29:47;;;;;;;14.95;11.18;;;;;;;;;;5008260;28;25077;-75
2023/09/03 02:32:13;;;;;;;15.23;11.73;;;;;;;;;;5012095;28;25076;-75
2023/09/03 02:34:39;;;;;;;15.32;11.60;;;;;;;;;;5014022;28;25067;-76
2023/09/03 02:37:05;;;;;;;16.42;12.70;;;;;;;;;;5011602;28;25064;-78
2023/09/03 02:39:31;;;;;;;16.15;12.70;;;;;;;;;;5039293;28;25101;-75
2023/09/03 02:41:57;;;;;;;17.92;11.63;;;;;;;;;;5022265;28;25083;-74
2023/09/03 02:44:23;;;;;;;14.73;12.05;;;;;;;;;;5017595;28;25155;-77
2023/09/03 02:46:49;;;;;;;15.23;12.38;;;;;;;;;;5021395;28;25055;-76
2023/09/03 02:49:15;;;;;;;16.05;11.98;;;;;;;;;;5031367;28;25055;-75
2023/09/03 02:51:41;;;;;;;14.85;11.68;;;;;;;;;;5010451;28;25079;-75
2023/09/03 02:54:07;;;;;;;15.50;11.68;;;;;;;;;;5018874;28;25139;-75
2023/09/03 02:56:34;;;;;;;14.57;11.48;;;;;;;;;;5015043;28;25072;-76
2023/09/03 02:59:00;;;;;;;15.43;11.77;;;;;;;;;;5015482;28;25046;-75
2023/09/03 03:01:26;;;;;;;14.65;12.50;;;;;;;;;;5011319;28;25160;-78
2023/09/03 03:03:52;;;;;;;14.35;11.95;;;;;;;;;;5011937;28;25065;-76
2023/09/03 03:06:18;;;;;;;14.90;11.45;;;;;;;;;;5011397;28;25049;-75
2023/09/03 03:08:44;;;;;;;15.40;11.60;;;;;;;;;;5009016;28;25131;-76
2023/09/03 03:11:11;;;;;;;15.05;12.23;;;;;;;;;;5011540;28;25080;-75
2023/09/03 03:13:41;;;;;;;15.77;12.50;;;;;;;;;;5029155;28;25072;-76
2023/09/03 03:16:08;;;;;;;19.35;12.40;;;;;;;;;;5032198;28;25068;-76
2023/09/03 03:18:35;;;;;;;14.40;11.57;;;;;;;;;;5014137;28;25067;-77
2023/09/03 03:21:08;;;;;;;16.65;12.88;;;;;;;;;;5014271;28;25057;-76
2023/09/03 03:23:38;;;;;;;15.65;11.15;;;;;;;;;;5015215;28;25301;-78
2023/09/03 03:26:05;;;;;;;13.25;11.10;;;;;;;;;;5016064;28;25070;-78
2023/09/03 03:28:32;;;;;;;15.95;12.38;;;;;;;;;;5014142;28;25058;-77
2023/09/03 03:30:59;;;;;;;15.13;12.02;;;;;;;;;;5016363;28;25207;-75
2023/09/03 03:33:25;;;;;;;16.60;12.63;;;;;;;;;;5008202;28;25050;-77
2023/09/03 03:35:51;;;;;;;16.92;12.52;;;;;;;;;;5013914;28;25059;-78
2023/09/03 03:38:17;;;;;;;16.75;12.23;;;;;;;;;;5007744;28;25060;-78
2023/09/03 03:40:43;;;;;;;17.35;12.82;;;;;;;;;;5010331;28;25105;-75
2023/09/03 03:43:09;;;;;;;17.42;12.98;;;;;;;;;;5011202;28;25080;-78
2023/09/03 03:45:36;;;;;;;18.58;13.23;;;;;;;;;;5010771;28;25047;-79
2023/09/03 03:48:02;;;;;;;15.02;12.57;;;;;;;;;;5033631;28;25065;-76
2023/09/03 03:50:29;;;;;;;16.77;12.50;;;;;;;;;;5010220;28;25184;-77
2023/09/03 03:52:55;;;;;;;15.95;12.25;;;;;;;;;;5011045;28;25060;-76
2023/09/03 03:55:21;;;;;;;15.23;11.50;;;;;;;;;;5013984;28;25063;-77
2023/09/03 03:57:47;;;;;;;15.15;12.05;;;;;;;;;;5011239;28;25059;-77
2023/09/03 04:00:13;;;;;;;14.77;11.05;;;;;;;;;;5009770;28;25061;-77
2023/09/03 04:02:40;;;;;;;15.98;12.27;;;;;;;;;;5010585;28;25052;-76
2023/09/03 04:05:06;;;;;;;14.15;11.38;;;;;;;;;;5008169;28;25059;-79
2023/09/03 04:07:32;;;;;;;16.08;12.18;;;;;;;;;;5015226;28;25063;-77
2023/09/03 04:09:59;;;;;;;15.15;11.70;;;;;;;;;;5013307;28;25073;-76
2023/09/03 04:12:25;;;;;;;16.05;11.98;;;;;;;;;;5012853;28;25055;-76
2023/09/03 04:14:51;;;;;;;16.48;12.50;;;;;;;;;;5012488;28;25085;-77
2023/09/03 04:17:17;;;;;;;21.08;13.13;;;;;;;;;;5014197;28;25104;-77
2023/09/03 04:19:47;;;;;;;16.55;12.65;;;;;;;;;;5012914;28;25122;-78
2023/09/03 04:22:13;;;;;;;15.30;12.30;;;;;;;;;;5007539;28;25078;-76
2023/09/03 04:24:40;;;;;;;18.60;12.98;;;;;;;;;;5013784;28;25071;-77
2023/09/03 04:27:06;;;;;;;15.57;12.15;;;;;;;;;;5015658;28;25111;-78
2023/09/03 04:29:32;;;;;;;16.05;13.38;;;;;;;;;;5019244;28;25188;-80
2023/09/03 04:31:59;;;;;;;18.42;12.10;;;;;;;;;;5032547;28;25130;-77
2023/09/03 04:34:26;;;;;;;17.35;12.63;;;;;;;;;;5011141;28;25090;-78
2023/09/03 04:36:51;;;;;;;15.13;11.48;;;;;;;;;;5024537;28;25088;-79
2023/09/03 04:39:18;;;;;;;18.50;14.10;;;;;;;;;;5023537;28;25104;-78
2023/09/03 04:41:44;;;;;;;16.13;12.10;;;;;;;;;;5018754;28;25049;-77
2023/09/03 04:44:10;;;;;;;17.77;13.40;;;;;;;;;;5011273;28;25077;-77
2023/09/03 04:46:37;;;;;;;19.10;13.40;;;;;;;;;;5018124;28;25065;-78
2023/09/03 04:49:03;;;;;;;18.90;13.23;;;;;;;;;;5024130;28;25054;-77
2023/09/03 04:51:29;;;;;;;17.92;13.43;;;;;;;;;;5031469;28;25073;-77
2023/09/03 04:53:55;;;;;;;17.48;12.63;;;;;;;;;;5039478;28;25078;-78
2023/09/03 04:56:21;;;;;;;18.50;14.07;;;;;;;;;;5022919;28;25060;-77
2023/09/03 04:58:47;;;;;;;18.00;13.57;;;;;;;;;;5033994;28;25069;-77
2023/09/03 05:01:16;;;;;;;26.05;14.00;;;;;;;;;;5022859;28;25079;-77
2023/09/03 05:03:43;;;;;;;17.85;12.85;;;;;;;;;;5014632;28;25057;-77
2023/09/03 05:06:13;;;;;;;17.80;13.65;;;;;;;;;;5042760;28;25066;-78
2023/09/03 05:08:39;;;;;;;18.58;13.57;;;;;;;;;;5030802;28;25130;-78
2023/09/03 05:11:11;;;;;;;22.20;14.23;;;;;;;;;;5018686;28;25046;-78
2023/09/03 05:13:37;;;;;;;22.35;14.05;;;;;;;;;;5020951;28;25048;-78
2023/09/03 05:16:04;;;;;;;18.90;13.40;;;;;;;;;;5035672;28;25101;-75
2023/09/03 05:18:30;;;;;;;17.25;13.02;;;;;;;;;;5034244;28;25059;-75
2023/09/03 05:20:57;;;;;;;17.35;12.52;;;;;;;;;;5013110;28;25095;-75
2023/09/03 05:23:23;;;;;;;18.15;13.98;;;;;;;;;;5032804;28;25150;-76
2023/09/03 05:25:49;;;;;;;16.73;13.50;;;;;;;;;;5013504;28;25103;-77
2023/09/03 05:28:15;;;;;;;19.83;14.43;;;;;;;;;;5038835;28;25069;-76
2023/09/03 05:30:41;;;;;;;18.42;13.48;;;;;;;;;;5036288;28;25166;-75
2023/09/03 05:33:07;;;;;;;17.48;13.75;;;;;;;;;;5036089;28;25061;-77
2023/09/03 05:35:32;;;;;;;20.92;14.02;;;;;;;;;;5026170;28;25061;-77
2023/09/03 05:37:58;;;;;;;18.75;13.63;;;;;;;;;;5017170;28;25096;-76
2023/09/03 05:40:24;;;;;;;21.98;13.75;;;;;;;;;;5035523;28;25137;-76
2023/09/03 05:42:50;;;;;;;16.20;13.48;;;;;;;;;;5020484;28;25077;-77
2023/09/03 05:45:16;;;;;;;24.45;15.32;;;;;;;;;;5011426;28;25064;-79
2023/09/03 05:47:43;;;;;;;20.92;14.50;;;;;;;;;;5015823;28;25075;-77
2023/09/03 05:50:09;;;;;;;24.15;14.55;;;;;;;;;;5013112;28;25058;-78
2023/09/03 05:52:35;;;;;;;20.40;14.32;;;;;;;;;;5024547;28;25142;-78
2023/09/03 05:55:01;;;;;;;20.48;15.05;;;;;;;;;;5013028;28;25068;-75
2023/09/03 05:57:27;;;;;;;24.55;15.57;;;;;;;;;;5014142;28;25064;-77
2023/09/03 05:59:54;;;;;;;23.88;15.65;;;;;;;;;;5012309;28;25103;-75
2023/09/03 06:02:20;;;;;;;20.70;14.75;;;;;;;;;;5012005;28;25147;-77
2023/09/03 06:04:46;;;;;;;20.30;15.25;;;;;;;;;;5013261;28;25173;-76
2023/09/03 06:07:13;;;;;;;24.02;16.15;;;;;;;;;;5022979;28;25083;-77
2023/09/03 06:09:39;;;;;;;20.65;15.52;;;;;;;;;;5015167;28;25139;-77
2023/09/03 06:12:05;;;;;;;19.75;15.27;;;;;;;;;;5008048;28;25060;-79
2023/09/03 06:14:31;;;;;;;19.25;15.77;;;;;;;;;;5013327;28;25096;-77
2023/09/03 06:16:57;;;;;;;24.42;15.82;;;;;;;;;;5013096;28;25079;-77
2023/09/03 06:19:23;;;;;;;23.85;16.33;;;;;;;;;;5007871;28;25076;-78
2023/09/03 06:21:49;;;;;;;25.83;16.30;;;;;;;;;;5007015;28;25062;-78
2023/09/03 06:24:16;;;;;;;19.77;14.43;;;;;;;;;;5033554;28;25069;-78
2023/09/03 06:26:42;;;;;;;21.77;16.00;;;;;;;;;;5007889;28;25059;-77
2023/09/03 06:29:08;;;;;;;23.50;16.00;;;;;;;;;;5015582;28;25067;-76
2023/09/03 06:31:34;;;;;;;22.10;16.00;;;;;;;;;;5012907;28;25077;-77
2023/09/03 06:34:00;;;;;;;20.17;14.40;;;;;;;;;;5011446;28;25053;-76
2023/09/03 06:36:26;;;;;;;21.10;15.23;;;;;;;;;;5013882;28;25068;-77
2023/09/03 06:38:52;;;;;;;21.80;15.75;;;;;;;;;;5010335;28;25086;-76
2023/09/03 06:41:18;;;;;;;20.83;15.50;;;;;;;;;;5009360;28;25099;-77
2023/09/03 06:43:44;;;;;;;24.08;16.67;;;;;;;;;;5013160;28;25101;-79
2023/09/03 06:46:10;;;;;;;22.45;15.38;;;;;;;;;;5019592;28;25066;-79
2023/09/03 06:48:36;;;;;;;20.92;15.10;;;;;;;;;;5012554;28;25053;-77
2023/09/03 06:51:02;;;;;;;20.50;15.45;;;;;;;;;;5016786;28;25055;-77
2023/09/03 06:53:28;;;;;;;20.63;15.20;;;;;;;;;;5018395;28;25051;-77
2023/09/03 06:55:54;;;;;;;20.27;15.32;;;;;;;;;;5015730;28;25081;-78
2023/09/03 06:58:20;;;;;;;21.08;14.93;;;;;;;;;;5012289;28;25087;-77
2023/09/03 07:00:46;;;;;;;19.85;14.55;;;;;;;;;;5013900;28;25071;-76
2023/09/03 07:03:13;;;;;;;22.38;15.65;;;;;;;;;;5009770;28;25068;-76
2023/09/03 07:05:42;;;;;;;22.42;14.93;;;;;;;;;;5013094;28;25062;-77
2023/09/03 07:08:08;;;;;;;19.27;13.80;;;;;;;;;;5029113;28;25080;-80
2023/09/03 07:10:34;;;;;;;17.45;13.20;;;;;;;;;;5009366;28;25047;-78
2023/09/03 07:13:01;;;;;;;18.00;13.27;;;;;;;;;;5008857;28;25076;-77
2023/09/03 07:15:27;;;;;;;17.58;14.00;;;;;;;;;;5009163;28;25100;-76
2023/09/03 07:17:52;;;;;;;20.65;14.55;;;;;;;;;;5024735;28;25099;-76
2023/09/03 07:20:18;;;;;;;19.30;13.43;;;;;;;;;;5007406;28;25085;-77
2023/09/03 07:22:44;;;;;;;18.52;13.93;;;;;;;;;;5023705;28;25080;-78
2023/09/03 07:25:11;;;;;;;17.13;12.35;;;;;;;;;;5027459;28;25069;-76
2023/09/03 07:27:39;;;;;;;16.90;12.65;;;;;;;;;;5014551;28;25155;-77
2023/09/03 07:30:08;;;;;;;19.23;13.65;;;;;;;;;;5012864;28;25070;-78
2023/09/03 07:32:36;;;;;;;17.20;13.02;;;;;;;;;;5014504;28;25095;-78
2023/09/03 07:35:03;;;;;;;16.60;13.00;;;;;;;;;;5013320;28;25069;-78
2023/09/03 07:37:29;;;;;;;19.92;13.50;;;;;;;;;;5013768;28;25155;-74
2023/09/03 07:39:55;;;;;;;17.40;12.70;;;;;;;;;;5015041;28;25076;-78
2023/09/03 07:42:20;;;;;;;16.05;13.18;;;;;;;;;;5016559;28;25064;-78
2023/09/03 07:44:46;;;;;;;14.45;12.35;;;;;;;;;;5018768;28;25166;-77
2023/09/03 07:47:12;;;;;;;14.18;11.55;;;;;;;;;;5014292;28;25129;-77
2023/09/03 07:49:38;;;;;;;14.57;11.15;;;;;;;;;;5008747;28;25074;-78
2023/09/03 07:52:06;;;;;;;15.45;11.73;;;;;;;;;;5018612;28;25068;-79
2023/09/03 07:54:32;;;;;;;14.25;11.07;;;;;;;;;;5018929;28;25077;-76
2023/09/03 07:56:58;;;;;;;14.25;11.20;;;;;;;;;;5013016;28;25063;-76
2023/09/03 07:59:24;;;;;;;12.60;11.30;;;;;;;;;;5013276;28;25158;-77
2023/09/03 08:01:50;;;;;;;16.98;11.82;;;;;;;;;;5016090;28;25071;-76
2023/09/03 08:04:16;;;;;;;15.15;11.70;;;;;;;;;;5012405;28;25064;-75
2023/09/03 08:06:42;;;;;;;17.27;12.38;;;;;;;;;;5012862;28;25102;-75
2023/09/03 08:09:08;;;;;;;17.25;12.13;;;;;;;;;;5015638;28;25064;-76
2023/09/03 08:11:36;;;;;;;13.82;10.90;;;;;;;;;;5013482;28;25103;-73
2023/09/03 08:14:02;;;;;;;17.80;11.98;;;;;;;;;;5009668;28;25165;-77
2023/09/03 08:16:28;;;;;;;16.75;12.32;;;;;;;;;;4999353;28;25585;-75
2023/09/03 08:18:54;;;;;;;19.98;11.85;;;;;;;;;;5003378;28;25046;-74
2023/09/03 08:21:20;;;;;;;17.52;11.85;;;;;;;;;;5005321;28;25137;-75
2023/09/03 08:23:46;;;;;;;16.77;12.25;;;;;;;;;;5010128;28;25112;-75
2023/09/03 08:26:12;;;;;;;14.63;11.57;;;;;;;;;;5008055;28;25065;-77
2023/09/03 08:28:38;;;;;;;14.50;11.75;;;;;;;;;;5007856;28;25054;-75
2023/09/03 08:31:04;;;;;;;14.23;11.48;;;;;;;;;;5002416;28;25070;-78
2023/09/03 08:33:30;;;;;;;15.82;11.05;;;;;;;;;;5018814;28;25057;-77
2023/09/03 08:35:56;;;;;;;15.23;10.80;;;;;;;;;;5001966;28;25055;-77
2023/09/03 08:38:22;;;;;;;18.33;10.43;;;;;;;;;;5008118;28;25076;-76
2023/09/03 08:40:48;;;;;;;16.60;11.35;;;;;;;;;;5006147;28;25076;-77
2023/09/03 08:43:19;;;;;;;16.75;10.43;;;;;;;;;;5008746;28;25076;-78
2023/09/03 08:45:51;;;;;;;16.25;11.25;;;;;;;;;;5006328;28;25069;-75
2023/09/03 08:48:17;;;;;;;16.38;10.07;;;;;;;;;;5005498;28;25071;-77
2023/09/03 08:50:44;;;;;;;17.30;10.55;;;;;;;;;;5008903;28;25080;-76
2023/09/03 08:53:12;;;;;;;12.48;10.35;;;;;;;;;;5003028;28;25051;-75
2023/09/03 08:55:39;;;;;;;14.93;10.25;;;;;;;;;;5018262;28;25144;-75
2023/09/03 08:58:05;;;;;;;15.88;11.10;;;;;;;;;;5002345;28;25066;-77
2023/09/03 09:00:32;;;;;;;16.20;10.25;;;;;;;;;;5004854;28;25061;-75
2023/09/03 09:03:00;;;;;;;15.18;10.50;;;;;;;;;;5003812;28;25587;-74
2023/09/03 09:05:27;;;;;;;13.57;9.30;;;;;;;;;;5004421;28;25081;-75
2023/09/03 09:07:53;;;;;;;16.73;11.32;;;;;;;;;;5021712;28;25060;-74
2023/09/03 09:10:22;;;;;;;16.88;10.20;;;;;;;;;;5003258;28;25130;-75
2023/09/03 09:12:52;;;;;;;14.95;10.23;;;;;;;;;;5022917;28;25061;-74
2023/09/03 09:15:18;;;;;;;16.67;9.68;;;;;;;;;;5005105;28;25159;-75
2023/09/03 09:17:44;;;;;;;16.23;11.15;;;;;;;;;;5005507;28;25111;-78
2023/09/03 09:20:15;;;;;;;10.80;9.20;;;;;;;;;;5008492;28;25081;-79
2023/09/03 09:22:42;;;;;;;15.35;9.27;;;;;;;;;;5003008;28;25106;-77
2023/09/03 09:25:08;;;;;;;13.55;9.80;;;;;;;;;;5007281;28;25071;-76
2023/09/03 09:27:38;;;;;;;18.15;9.93;;;;;;;;;;5000440;28;25134;-77
2023/09/03 09:30:14;;;;;;;11.45;8.82;;;;;;;;;;5004970;28;25104;-79
2023/09/03 09:32:41;;;;;;;11.40;8.68;;;;;;;;;;5003145;28;25047;-77
2023/09/03 09:35:07;;;;;;;13.77;8.80;;;;;;;;;;5004372;28;25053;-74
2023/09/03 09:37:38;;;;;;;10.50;7.53;;;;;;;;;;4999851;28;25063;-77
2023/09/03 09:40:04;;;;;;;12.02;8.95;;;;;;;;;;5000505;28;25076;-77
2023/09/03 09:42:30;;;;;;;13.38;8.38;;;;;;;;;;5008515;28;25108;-77
2023/09/03 09:44:59;;;;;;;13.85;9.15;;;;;;;;;;4998470;28;25086;-76
2023/09/03 09:47:25;;;;;;;14.85;8.48;;;;;;;;;;5005637;28;25116;-76
2023/09/03 09:49:51;;;;;;;14.38;8.13;;;;;;;;;;5011036;28;25070;-78
2023/09/03 09:52:18;;;;;;;10.02;6.75;;;;;;;;;;5006612;28;25057;-76
2023/09/03 09:54:44;;;;;;;12.32;6.70;;;;;;;;;;5007839;28;25105;-77
2023/09/03 09:57:11;;;;;;;10.15;6.38;;;;;;;;;;5008565;28;25070;-79
2023/09/03 09:59:39;;;;;;;10.77;5.82;;;;;;;;;;5009601;28;25066;-76
2023/09/03 10:02:15;;;;;;;8.40;7.18;;;;;;;;;;5003886;28;25050;-77
2023/09/03 10:04:44;;;;;;;8.38;6.18;;;;;;;;;;5001912;28;25068;-76
2023/09/03 10:07:10;;;;;;;12.15;5.95;;;;;;;;;;5005863;28;25212;-76
2023/09/03 10:09:36;;;;;;;9.05;6.40;;;;;;;;;;5010481;28;25133;-76
2023/09/03 10:12:05;;;;;;;8.82;5.43;;;;;;;;;;5023846;28;25069;-76
2023/09/03 10:14:31;;;;;;;8.80;5.68;;;;;;;;;;5023787;28;25075;-77
2023/09/03 10:17:00;;;;;;;10.15;6.32;;;;;;;;;;5021676;28;25059;-77
2023/09/03 10:19:52;;;;;;;10.18;6.15;;;;;;;;;;5024495;28;25111;-79
2023/09/03 10:22:19;;;;;;;7.38;5.50;;;;;;;;;;5013674;28;25070;-76
2023/09/03 10:24:51;;;;;;;10.00;5.70;;;;;;;;;;5015468;28;25054;-79
2023/09/03 10:27:17;;;;;;;;;;;;;;;;;;5008277;28;25078;-76
2023/09/03 10:29:44;;;;;;;11.77;6.55;;;;;;;;;;5027130;28;24088;-74
2023/09/03 10:32:11;;;;;;;12.55;7.28;;;;;;;;;;5024414;28;25056;-75
2023/09/03 10:34:37;;;;;;;10.38;7.65;;;;;;;;;;5021038;28;25068;-77
2023/09/03 10:37:07;;;;;;;8.75;6.05;;;;;;;;;;5005316;28;25078;-78
2023/09/03 10:39:34;;;;;;;11.43;6.95;;;;;;;;;;5001922;28;25048;-77
2023/09/03 10:42:18;;;;;;;8.13;5.55;;;;;;;;;;5005373;28;25062;-76
2023/09/03 10:44:49;;;;;;;7.22;5.70;;;;;;;;;;4999071;28;25160;-76
2023/09/03 10:47:17;;;;;;;8.65;6.70;;;;;;;;;;5019991;28;25153;-77
2023/09/03 10:49:47;;;;;;;8.38;6.55;;;;;;;;;;4998720;28;25116;-76
2023/09/03 10:52:30;;;;;;;8.55;5.60;;;;;;;;;;4997636;28;25052;-76
2023/09/03 10:55:16;;;;;;;8.63;4.15;;;;;;;;;;5003237;28;25069;-78
2023/09/03 10:57:43;;;;;;;8.80;4.18;;;;;;;;;;5010637;28;25150;-76
2023/09/03 11:00:10;;;;;;;7.75;4.68;;;;;;;;;;5008556;28;25080;-77
2023/09/03 11:02:36;;;;;;;6.07;4.43;;;;;;;;;;5018417;28;25100;-79
2023/09/03 11:05:11;;;;;;;6.70;4.65;;;;;;;;;;5015854;28;25085;-77
2023/09/03 11:07:37;;;;;;;7.32;5.53;;;;;;;;;;5006572;28;25170;-74
2023/09/03 11:10:25;;;;;;;7.13;5.35;;;;;;;;;;5003931;28;25109;-78
2023/09/03 11:12:51;;;;;;;6.80;4.45;;;;;;;;;;5009287;28;25052;-76
2023/09/03 11:15:18;;;;;;;8.52;5.05;;;;;;;;;;4996575;28;25121;-77
2023/09/03 11:17:50;;;;;;;6.35;4.63;;;;;;;;;;5004369;28;25061;-76
2023/09/03 11:20:28;;;;;;;7.07;4.35;;;;;;;;;;5000973;28;25095;-78
2023/09/03 11:23:01;;;;;;;6.25;5.35;;;;;;;;;;5001164;28;25170;-77
2023/09/03 11:25:34;;;;;;;7.57;3.58;;;;;;;;;;5006684;28;25049;-76
2023/09/03 11:28:00;;;;;;;8.95;5.75;;;;;;;;;;5008600;28;25072;-76
2023/09/03 11:30:26;;;;;;;11.10;4.20;;;;;;;;;;5003450;28;25153;-74
2023/09/03 11:32:52;;;;;;;7.25;5.25;;;;;;;;;;5013634;28;25093;-76
2023/09/03 11:35:18;;;;;;;8.65;5.50;;;;;;;;;;5004818;28;25110;-77
2023/09/03 11:37:44;;;;;;;5.20;3.35;;;;;;;;;;5004041;28;25112;-77
2023/09/03 11:40:12;;;;;;;7.90;4.72;;;;;;;;;;5005920;28;25098;-77
2023/09/03 11:42:41;;;;;;;7.35;4.05;;;;;;;;;;5000930;28;25093;-77
2023/09/03 11:45:08;;;;;;;6.50;3.83;;;;;;;;;;5006586;28;25097;-77
2023/09/03 11:47:40;;;;;;;4.25;3.85;;;;;;;;;;5001674;28;25057;-76
2023/09/03 11:50:16;;;;;;;6.63;3.45;;;;;;;;;;5006259;28;25074;-77
2023/09/03 11:52:47;;;;;;;6.72;4.20;;;;;;;;;;5011172;28;25064;-74
2023/09/03 11:55:13;;;;;;;5.97;4.00;;;;;;;;;;4999502;28;25086;-76
2023/09/03 11:57:42;;;;;;;5.45;3.85;;;;;;;;;;5002746;28;25106;-75
2023/09/03 12:00:08;;;;;;;7.88;3.88;;;;;;;;;;5004086;28;25108;-76
2023/09/03 12:02:34;;;;;;;6.60;4.65;;;;;;;;;;4999917;28;25126;-76
2023/09/03 12:05:03;;;;;;;5.75;5.15;;;;;;;;;;4999258;28;25161;-75
2023/09/03 12:07:29;;;;;;;5.65;4.20;;;;;;;;;;5008666;28;25081;-74
2023/09/03 12:09:55;;;;;;;6.47;4.82;;;;;;;;;;4993803;28;25079;-76
2023/09/03 12:12:21;;;;;;;5.43;4.28;;;;;;;;;;4998334;28;25056;-75
2023/09/03 12:14:47;;;;;;;5.50;3.92;;;;;;;;;;5003133;28;25069;-77
2023/09/03 12:17:22;;;;;;;4.32;3.75;;;;;;;;;;5002071;28;25129;-76
2023/09/03 12:19:48;;;;;;;5.32;4.20;;;;;;;;;;5001686;28;25150;-76
2023/09/03 12:22:14;;;;;;;4.55;3.28;;;;;;;;;;5001419;28;25090;-76
2023/09/03 12:24:40;;;;;;;4.50;3.35;;;;;;;;;;5003491;28;25073;-77
2023/09/03 12:27:06;;;;;;;8.50;3.90;;;;;;;;;;4998719;28;25076;-75
2023/09/03 12:29:36;;;;;;;3.97;2.90;;;;;;;;;;4999878;28;25088;-77
2023/09/03 12:32:14;;;;;;;6.75;3.08;;;;;;;;;;5004022;28;25148;-76
2023/09/03 12:34:43;;;;;;;3.55;2.92;;;;;;;;;;5006210;28;25058;-76
2023/09/03 12:37:09;;;;;;;4.55;3.55;;;;;;;;;;5001149;28;25085;-75
2023/09/03 12:39:36;;;;;;;6.47;3.90;;;;;;;;;;5005736;28;25087;-76
2023/09/03 12:42:03;;;;;;;4.15;3.53;;;;;;;;;;5005976;28;25059;-74
2023/09/03 12:44:29;;;;;;;6.63;2.97;;;;;;;;;;5006122;28;25108;-77
2023/09/03 12:46:56;;;;;;;2.92;2.65;;;;;;;;;;5000831;28;25119;-76
2023/09/03 12:49:22;;;;;;;4.15;2.63;;;;;;;;;;5016165;28;25084;-78
2023/09/03 12:51:48;;;;;;;2.92;2.30;;;;;;;;;;5000455;28;25053;-75
2023/09/03 12:54:15;;;;;;;4.80;2.33;;;;;;;;;;4998608;28;25065;-75
2023/09/03 12:56:41;;;;;;;2.17;1.95;;;;;;;;;;5004063;28;25126;-74
2023/09/03 12:59:07;;;;;;;4.10;2.15;;;;;;;;;;5014663;28;25055;-74
2023/09/03 13:01:34;;;;;;;2.90;2.20;;;;;;;;;;5000064;28;25066;-75
2023/09/03 13:04:00;;;;;;;2.63;1.92;;;;;;;;;;5002467;28;25109;-75
2023/09/03 13:06:26;;;;;;;3.80;2.63;;;;;;;;;;5002743;28;25049;-76
2023/09/03 13:08:52;;;;;;;6.10;2.65;;;;;;;;;;5002697;28;25100;-76
2023/09/03 13:11:21;;;;;;;4.05;2.50;;;;;;;;;;5004734;28;25112;-76
2023/09/03 13:13:50;;;;;;;4.40;2.10;;;;;;;;;;4998254;28;25059;-75
2023/09/03 13:16:19;;;;;;;3.33;2.28;;;;;;;;;;5007967;28;25049;-74
2023/09/03 13:18:49;;;;;;;5.13;2.63;;;;;;;;;;5009408;28;25059;-76
2023/09/03 13:21:19;;;;;;;1.98;1.88;;;;;;;;;;5008739;28;25076;-74
2023/09/03 13:23:45;;;;;;;2.92;1.77;;;;;;;;;;5007591;28;25104;-75
2023/09/03 13:26:11;;;;;;;2.70;2.50;;;;;;;;;;5008796;28;25060;-77
2023/09/03 13:28:41;;;;;;;4.78;3.00;;;;;;;;;;4998840;28;25063;-76
2023/09/03 13:31:07;;;;;;;2.88;2.40;;;;;;;;;;5014492;28;25055;-76
2023/09/03 13:33:34;;;;;;;2.28;2.08;;;;;;;;;;4997585;28;25097;-74
2023/09/03 13:36:00;;;;;;;3.75;2.67;;;;;;;;;;4998459;28;25076;-74
2023/09/03 13:38:26;;;;;;;2.17;1.98;;;;;;;;;;4998016;28;25072;-75
2023/09/03 13:40:53;;;;;;;3.45;2.80;;;;;;;;;;4998829;28;25063;-74
2023/09/03 13:43:19;;;;;;;2.70;2.50;;;;;;;;;;5001923;28;25086;-75
2023/09/03 13:45:59;;;;;;;3.83;2.90;;;;;;;;;;4998299;28;25151;-74
2023/09/03 13:48:25;;;;;;;3.78;1.80;;;;;;;;;;5020215;28;25175;-75
2023/09/03 13:50:52;;;;;;;1.95;1.75;;;;;;;;;;5004547;28;25115;-75
2023/09/03 13:53:18;;;;;;;2.38;2.13;;;;;;;;;;5013517;28;25301;-73
2023/09/03 13:55:44;;;;;;;3.20;2.45;;;;;;;;;;5004272;28;25068;-76
2023/09/03 13:58:10;;;;;;;2.70;1.88;;;;;;;;;;5003641;28;25095;-76
2023/09/03 14:00:39;;;;;;;3.15;2.13;;;;;;;;;;5005372;28;25054;-76
2023/09/03 14:03:05;;;;;;;3.60;2.20;;;;;;;;;;5005479;28;25153;-77
2023/09/03 14:05:31;;;;;;;5.03;2.72;;;;;;;;;;5005447;28;25167;-78
2023/09/03 14:07:57;;;;;;;2.72;2.10;;;;;;;;;;4998918;28;25073;-75
2023/09/03 14:10:23;;;;;;;3.42;2.13;;;;;;;;;;5001216;28;25063;-75
2023/09/03 14:12:49;;;;;;;2.92;1.92;;;;;;;;;;5015435;28;25061;-75
2023/09/03 14:15:15;;;;;;;2.47;1.80;;;;;;;;;;4998557;28;25069;-76
2023/09/03 14:17:41;;;;;;;4.30;2.30;;;;;;;;;;5007620;28;25145;-77
2023/09/03 14:20:08;;;;;;;5.22;1.83;;;;;;;;;;5000784;28;25077;-75
2023/09/03 14:22:34;;;;;;;5.22;1.80;;;;;;;;;;5005966;28;25137;-75
2023/09/03 14:25:00;;;;;;;1.60;1.50;;;;;;;;;;5006274;28;25202;-77
2023/09/03 14:27:26;;;;;;;8.07;2.10;;;;;;;;;;5020194;28;25167;-76